Rechercher aéroport 
image banner adimage banner adimage banner ad
image banner ad

KAOO - Altoona-Blair County

Situé à Altoona, United States

ICAO - AOO, IATA - AOO

Données fournies par Airmate  

Information générale

Coordonnées: N40°17'47" W78°19'12"
Élévation : 1503 feet MSL.
Variation magnétique : -10° East
Voir autres Aéroports à Pennsylvania

Données opérationnelles

Special qualification required
Heure actuelle UTC:
Heure actuelle locale:
Météo
METAR: KAOO 152153Z AUTO 32009KT 10SM FEW070 BKN090 OVC110 22/13 A2989 RMK AO2 SLP114 T02170133
TAF: KAOO 152106Z 1521/1618 33008KT P6SM VCSH SCT050 BKN100 FM160000 31005KT P6SM SCT045 FM160600 VRB03KT 6SM BR SKC FM161600 33008KT P6SM SKC
Voir NOTAMs / SUP AIP / TFR affectant cet aéroport [VIEW]
Fréquences de communication: [VIEW]

Pistes:

Identifiant RWYQFULongueur (ft)Largeur (ft)SurfaceLDA (ft)
0316°5465100ASPH5465
21196°5465100ASPH5465
12108°366875ASPH3668
30288°366875ASPH3668

Coordonnées de l'aéroport

Adresse: Altoona United States

Vue satellite de KAOO